sensor_id;sensor_type;location;lat;lon;timestamp;P1;durP1;ratioP1;P2;durP2;ratioP2
46322;SDS011;32044;52.386;13.278;2022-08-14T00:02:24;14.43;;;12.93;;
46322;SDS011;32044;52.386;13.278;2022-08-14T00:04:50;13.82;;;12.52;;
46322;SDS011;32044;52.386;13.278;2022-08-14T00:07:15;13.98;;;12.57;;
46322;SDS011;32044;52.386;13.278;2022-08-14T00:09:44;13.90;;;12.20;;
46322;SDS011;32044;52.386;13.278;2022-08-14T00:12:09;16.25;;;14.65;;
46322;SDS011;32044;52.386;13.278;2022-08-14T00:14:35;14.75;;;13.32;;
46322;SDS011;32044;52.386;13.278;2022-08-14T00:17:02;14.55;;;13.15;;
46322;SDS011;32044;52.386;13.278;2022-08-14T00:19:27;14.77;;;13.38;;
46322;SDS011;32044;52.386;13.278;2022-08-14T00:21:52;16.20;;;14.70;;
46322;SDS011;32044;52.386;13.278;2022-08-14T00:24:18;15.10;;;13.50;;
46322;SDS011;32044;52.386;13.278;2022-08-14T00:26:44;13.57;;;12.27;;
46322;SDS011;32044;52.386;13.278;2022-08-14T00:29:09;17.45;;;15.75;;
46322;SDS011;32044;52.386;13.278;2022-08-14T00:31:34;16.13;;;14.48;;
46322;SDS011;32044;52.386;13.278;2022-08-14T00:33:59;15.98;;;14.48;;
46322;SDS011;32044;52.386;13.278;2022-08-14T00:36:25;15.70;;;14.15;;
46322;SDS011;32044;52.386;13.278;2022-08-14T00:38:50;15.23;;;13.75;;
46322;SDS011;32044;52.386;13.278;2022-08-14T00:41:15;15.30;;;13.80;;
46322;SDS011;32044;52.386;13.278;2022-08-14T00:43:41;15.27;;;13.68;;
46322;SDS011;32044;52.386;13.278;2022-08-14T00:46:09;15.88;;;14.30;;
46322;SDS011;32044;52.386;13.278;2022-08-14T00:48:35;15.23;;;13.73;;
46322;SDS011;32044;52.386;13.278;2022-08-14T00:51:02;14.00;;;12.68;;
46322;SDS011;32044;52.386;13.278;2022-08-14T00:53:29;14.70;;;13.35;;
46322;SDS011;32044;52.386;13.278;2022-08-14T00:55:55;17.10;;;15.50;;
46322;SDS011;32044;52.386;13.278;2022-08-14T00:58:21;18.38;;;16.63;;
46322;SDS011;32044;52.386;13.278;2022-08-14T01:00:57;21.05;;;18.92;;
46322;SDS011;32044;52.386;13.278;2022-08-14T01:03:27;20.00;;;18.00;;
46322;SDS011;32044;52.386;13.278;2022-08-14T01:05:53;19.67;;;17.80;;
46322;SDS011;32044;52.386;13.278;2022-08-14T01:08:22;23.40;;;19.48;;
46322;SDS011;32044;52.386;13.278;2022-08-14T01:10:49;23.65;;;21.35;;
46322;SDS011;32044;52.386;13.278;2022-08-14T01:13:16;24.63;;;21.55;;
46322;SDS011;32044;52.386;13.278;2022-08-14T01:15:53;24.75;;;22.15;;
46322;SDS011;32044;52.386;13.278;2022-08-14T01:18:19;27.52;;;23.58;;
46322;SDS011;32044;52.386;13.278;2022-08-14T01:21:06;28.65;;;21.67;;
46322;SDS011;32044;52.386;13.278;2022-08-14T01:23:33;23.77;;;21.17;;
46322;SDS011;32044;52.386;13.278;2022-08-14T01:26:18;21.50;;;19.40;;
46322;SDS011;32044;52.386;13.278;2022-08-14T01:28:45;22.50;;;20.20;;
46322;SDS011;32044;52.386;13.278;2022-08-14T01:31:13;23.27;;;20.88;;
46322;SDS011;32044;52.386;13.278;2022-08-14T01:33:40;23.58;;;20.98;;
46322;SDS011;32044;52.386;13.278;2022-08-14T01:36:09;26.60;;;20.30;;
46322;SDS011;32044;52.386;13.278;2022-08-14T01:38:36;21.65;;;19.48;;
46322;SDS011;32044;52.386;13.278;2022-08-14T01:41:02;20.40;;;18.50;;
46322;SDS011;32044;52.386;13.278;2022-08-14T01:43:30;18.48;;;16.65;;
46322;SDS011;32044;52.386;13.278;2022-08-14T01:45:57;20.27;;;18.17;;
46322;SDS011;32044;52.386;13.278;2022-08-14T01:48:24;20.75;;;18.77;;
46322;SDS011;32044;52.386;13.278;2022-08-14T01:50:57;23.13;;;20.58;;
46322;SDS011;32044;52.386;13.278;2022-08-14T01:53:25;23.80;;;21.50;;
46322;SDS011;32044;52.386;13.278;2022-08-14T01:55:50;22.55;;;20.30;;
46322;SDS011;32044;52.386;13.278;2022-08-14T01:58:21;23.05;;;20.75;;
46322;SDS011;32044;52.386;13.278;2022-08-14T02:00:48;22.10;;;19.75;;
46322;SDS011;32044;52.386;13.278;2022-08-14T02:03:18;22.35;;;20.25;;
46322;SDS011;32044;52.386;13.278;2022-08-14T02:05:43;20.00;;;18.00;;
46322;SDS011;32044;52.386;13.278;2022-08-14T02:08:08;22.40;;;20.10;;
46322;SDS011;32044;52.386;13.278;2022-08-14T02:10:33;22.17;;;19.65;;
46322;SDS011;32044;52.386;13.278;2022-08-14T02:12:59;23.13;;;20.77;;
46322;SDS011;32044;52.386;13.278;2022-08-14T02:15:24;20.83;;;18.83;;
46322;SDS011;32044;52.386;13.278;2022-08-14T02:17:50;22.90;;;18.48;;
46322;SDS011;32044;52.386;13.278;2022-08-14T02:20:15;20.60;;;18.02;;
46322;SDS011;32044;52.386;13.278;2022-08-14T02:22:42;20.08;;;17.52;;
46322;SDS011;32044;52.386;13.278;2022-08-14T02:25:07;19.40;;;17.33;;
46322;SDS011;32044;52.386;13.278;2022-08-14T02:27:33;20.80;;;18.70;;
46322;SDS011;32044;52.386;13.278;2022-08-14T02:29:58;20.33;;;18.23;;
46322;SDS011;32044;52.386;13.278;2022-08-14T02:32:23;21.95;;;19.67;;
46322;SDS011;32044;52.386;13.278;2022-08-14T02:34:48;20.65;;;18.65;;
46322;SDS011;32044;52.386;13.278;2022-08-14T02:37:14;20.48;;;18.30;;
46322;SDS011;32044;52.386;13.278;2022-08-14T02:39:41;19.77;;;17.70;;
46322;SDS011;32044;52.386;13.278;2022-08-14T02:42:08;21.80;;;19.60;;
46322;SDS011;32044;52.386;13.278;2022-08-14T02:44:36;20.55;;;18.55;;
46322;SDS011;32044;52.386;13.278;2022-08-14T02:47:03;19.33;;;17.33;;
46322;SDS011;32044;52.386;13.278;2022-08-14T02:49:28;17.83;;;16.13;;
46322;SDS011;32044;52.386;13.278;2022-08-14T02:51:55;16.52;;;14.85;;
46322;SDS011;32044;52.386;13.278;2022-08-14T02:54:22;15.63;;;14.18;;
46322;SDS011;32044;52.386;13.278;2022-08-14T02:56:48;14.80;;;13.18;;
46322;SDS011;32044;52.386;13.278;2022-08-14T02:59:14;14.38;;;13.07;;
46322;SDS011;32044;52.386;13.278;2022-08-14T03:01:41;15.00;;;13.60;;
46322;SDS011;32044;52.386;13.278;2022-08-14T03:04:06;14.82;;;13.43;;
46322;SDS011;32044;52.386;13.278;2022-08-14T03:06:34;14.95;;;13.55;;
46322;SDS011;32044;52.386;13.278;2022-08-14T03:09:02;14.77;;;13.43;;
46322;SDS011;32044;52.386;13.278;2022-08-14T03:11:27;14.60;;;13.20;;
46322;SDS011;32044;52.386;13.278;2022-08-14T03:13:53;14.45;;;12.98;;
46322;SDS011;32044;52.386;13.278;2022-08-14T03:16:21;14.98;;;12.00;;
46322;SDS011;32044;52.386;13.278;2022-08-14T03:18:48;14.82;;;13.32;;
46322;SDS011;32044;52.386;13.278;2022-08-14T03:21:17;15.95;;;14.43;;
46322;SDS011;32044;52.386;13.278;2022-08-14T03:23:46;14.85;;;13.45;;
46322;SDS011;32044;52.386;13.278;2022-08-14T03:26:17;13.38;;;12.10;;
46322;SDS011;32044;52.386;13.278;2022-08-14T03:31:13;14.75;;;13.43;;
46322;SDS011;32044;52.386;13.278;2022-08-14T03:33:39;14.40;;;12.75;;
46322;SDS011;32044;52.386;13.278;2022-08-14T03:36:08;14.93;;;13.52;;
46322;SDS011;32044;52.386;13.278;2022-08-14T03:38:43;14.80;;;13.45;;
46322;SDS011;32044;52.386;13.278;2022-08-14T03:41:13;13.80;;;12.50;;
46322;SDS011;32044;52.386;13.278;2022-08-14T03:43:43;16.23;;;14.55;;
46322;SDS011;32044;52.386;13.278;2022-08-14T03:46:10;14.38;;;13.07;;
46322;SDS011;32044;52.386;13.278;2022-08-14T03:48:37;14.13;;;12.88;;
46322;SDS011;32044;52.386;13.278;2022-08-14T03:51:04;14.40;;;13.18;;
46322;SDS011;32044;52.386;13.278;2022-08-14T03:53:30;16.58;;;14.98;;
46322;SDS011;32044;52.386;13.278;2022-08-14T03:55:55;16.23;;;14.52;;
46322;SDS011;32044;52.386;13.278;2022-08-14T03:58:22;16.25;;;14.75;;
46322;SDS011;32044;52.386;13.278;2022-08-14T04:00:48;17.55;;;15.85;;
46322;SDS011;32044;52.386;13.278;2022-08-14T04:03:13;16.17;;;14.60;;
46322;SDS011;32044;52.386;13.278;2022-08-14T04:05:38;15.63;;;14.13;;
46322;SDS011;32044;52.386;13.278;2022-08-14T04:08:07;16.02;;;14.45;;
46322;SDS011;32044;52.386;13.278;2022-08-14T04:10:32;16.52;;;14.95;;
46322;SDS011;32044;52.386;13.278;2022-08-14T04:12:59;19.02;;;17.23;;
46322;SDS011;32044;52.386;13.278;2022-08-14T04:15:25;15.20;;;13.80;;
46322;SDS011;32044;52.386;13.278;2022-08-14T04:17:51;15.63;;;14.20;;
46322;SDS011;32044;52.386;13.278;2022-08-14T04:20:17;14.25;;;12.93;;
46322;SDS011;32044;52.386;13.278;2022-08-14T04:22:43;14.85;;;13.48;;
46322;SDS011;32044;52.386;13.278;2022-08-14T04:25:09;13.70;;;12.50;;
46322;SDS011;32044;52.386;13.278;2022-08-14T04:27:35;16.40;;;14.50;;
46322;SDS011;32044;52.386;13.278;2022-08-14T04:30:01;18.63;;;16.77;;
46322;SDS011;32044;52.386;13.278;2022-08-14T04:32:29;17.98;;;16.27;;
46322;SDS011;32044;52.386;13.278;2022-08-14T04:34:54;17.85;;;16.05;;
46322;SDS011;32044;52.386;13.278;2022-08-14T04:37:21;15.00;;;13.60;;
46322;SDS011;32044;52.386;13.278;2022-08-14T04:40:06;15.93;;;14.43;;
46322;SDS011;32044;52.386;13.278;2022-08-14T04:42:51;15.85;;;14.20;;
46322;SDS011;32044;52.386;13.278;2022-08-14T04:45:35;13.93;;;12.63;;
46322;SDS011;32044;52.386;13.278;2022-08-14T04:48:14;16.13;;;14.57;;
46322;SDS011;32044;52.386;13.278;2022-08-14T04:50:45;15.80;;;14.20;;
46322;SDS011;32044;52.386;13.278;2022-08-14T04:53:13;15.50;;;14.00;;
46322;SDS011;32044;52.386;13.278;2022-08-14T04:55:44;14.52;;;13.02;;
46322;SDS011;32044;52.386;13.278;2022-08-14T04:58:16;14.82;;;13.27;;
46322;SDS011;32044;52.386;13.278;2022-08-14T05:00:43;14.82;;;13.43;;
46322;SDS011;32044;52.386;13.278;2022-08-14T05:03:09;15.07;;;13.70;;
46322;SDS011;32044;52.386;13.278;2022-08-14T05:05:35;14.93;;;13.48;;
46322;SDS011;32044;52.386;13.278;2022-08-14T05:08:04;15.63;;;14.10;;
46322;SDS011;32044;52.386;13.278;2022-08-14T05:10:33;14.27;;;12.93;;
46322;SDS011;32044;52.386;13.278;2022-08-14T05:12:59;15.10;;;13.70;;
46322;SDS011;32044;52.386;13.278;2022-08-14T05:15:24;17.45;;;15.70;;
46322;SDS011;32044;52.386;13.278;2022-08-14T05:17:53;15.65;;;14.00;;
46322;SDS011;32044;52.386;13.278;2022-08-14T05:20:18;15.40;;;13.73;;
46322;SDS011;32044;52.386;13.278;2022-08-14T05:22:44;15.85;;;14.43;;
46322;SDS011;32044;52.386;13.278;2022-08-14T05:25:09;15.75;;;14.25;;
46322;SDS011;32044;52.386;13.278;2022-08-14T05:27:34;17.73;;;16.00;;
46322;SDS011;32044;52.386;13.278;2022-08-14T05:30:02;16.02;;;14.40;;
46322;SDS011;32044;52.386;13.278;2022-08-14T05:32:31;14.32;;;13.13;;
46322;SDS011;32044;52.386;13.278;2022-08-14T05:34:57;15.63;;;14.20;;
46322;SDS011;32044;52.386;13.278;2022-08-14T05:37:23;17.08;;;15.50;;
46322;SDS011;32044;52.386;13.278;2022-08-14T05:39:48;17.15;;;15.65;;
46322;SDS011;32044;52.386;13.278;2022-08-14T05:42:14;21.42;;;18.90;;
46322;SDS011;32044;52.386;13.278;2022-08-14T05:44:40;19.05;;;17.35;;
46322;SDS011;32044;52.386;13.278;2022-08-14T05:47:06;19.88;;;17.70;;
46322;SDS011;32044;52.386;13.278;2022-08-14T05:49:31;15.45;;;14.07;;
46322;SDS011;32044;52.386;13.278;2022-08-14T05:51:56;14.70;;;13.20;;
46322;SDS011;32044;52.386;13.278;2022-08-14T05:54:22;16.42;;;14.82;;
46322;SDS011;32044;52.386;13.278;2022-08-14T05:56:47;16.30;;;14.55;;
46322;SDS011;32044;52.386;13.278;2022-08-14T05:59:12;14.77;;;13.38;;
46322;SDS011;32044;52.386;13.278;2022-08-14T06:01:37;16.98;;;15.38;;
46322;SDS011;32044;52.386;13.278;2022-08-14T06:04:03;16.58;;;14.98;;
46322;SDS011;32044;52.386;13.278;2022-08-14T06:06:28;14.52;;;13.23;;
46322;SDS011;32044;52.386;13.278;2022-08-14T06:08:53;12.98;;;11.88;;
46322;SDS011;32044;52.386;13.278;2022-08-14T06:11:19;12.38;;;11.10;;
46322;SDS011;32044;52.386;13.278;2022-08-14T06:13:44;15.68;;;14.20;;
46322;SDS011;32044;52.386;13.278;2022-08-14T06:16:09;11.85;;;10.65;;
46322;SDS011;32044;52.386;13.278;2022-08-14T06:18:35;13.60;;;12.20;;
46322;SDS011;32044;52.386;13.278;2022-08-14T06:21:01;12.20;;;11.10;;
46322;SDS011;32044;52.386;13.278;2022-08-14T06:23:27;14.77;;;12.90;;
46322;SDS011;32044;52.386;13.278;2022-08-14T06:25:53;15.10;;;12.75;;
46322;SDS011;32044;52.386;13.278;2022-08-14T06:28:19;16.15;;;14.68;;
46322;SDS011;32044;52.386;13.278;2022-08-14T06:30:46;12.63;;;11.50;;
46322;SDS011;32044;52.386;13.278;2022-08-14T06:33:12;11.38;;;10.25;;
46322;SDS011;32044;52.386;13.278;2022-08-14T06:35:38;12.02;;;10.93;;
46322;SDS011;32044;52.386;13.278;2022-08-14T06:38:04;12.88;;;11.32;;
46322;SDS011;32044;52.386;13.278;2022-08-14T06:40:30;11.55;;;10.45;;
46322;SDS011;32044;52.386;13.278;2022-08-14T06:42:59;11.93;;;10.60;;
46322;SDS011;32044;52.386;13.278;2022-08-14T06:45:25;17.15;;;14.07;;
46322;SDS011;32044;52.386;13.278;2022-08-14T06:47:50;16.42;;;14.07;;
46322;SDS011;32044;52.386;13.278;2022-08-14T06:50:16;15.15;;;13.55;;
46322;SDS011;32044;52.386;13.278;2022-08-14T06:52:43;15.13;;;13.50;;
46322;SDS011;32044;52.386;13.278;2022-08-14T06:55:09;15.05;;;13.55;;
46322;SDS011;32044;52.386;13.278;2022-08-14T06:57:37;13.90;;;12.50;;
46322;SDS011;32044;52.386;13.278;2022-08-14T07:00:05;12.63;;;11.38;;
46322;SDS011;32044;52.386;13.278;2022-08-14T07:02:31;14.38;;;12.40;;
46322;SDS011;32044;52.386;13.278;2022-08-14T07:05:15;16.17;;;14.57;;
46322;SDS011;32044;52.386;13.278;2022-08-14T07:07:59;13.85;;;12.43;;
46322;SDS011;32044;52.386;13.278;2022-08-14T07:10:24;14.57;;;12.55;;
46322;SDS011;32044;52.386;13.278;2022-08-14T07:12:49;16.40;;;11.57;;
46322;SDS011;32044;52.386;13.278;2022-08-14T07:15:15;12.18;;;10.70;;
46322;SDS011;32044;52.386;13.278;2022-08-14T07:17:44;11.45;;;10.27;;
46322;SDS011;32044;52.386;13.278;2022-08-14T07:20:12;12.20;;;11.10;;
46322;SDS011;32044;52.386;13.278;2022-08-14T07:22:38;12.10;;;9.00;;
46322;SDS011;32044;52.386;13.278;2022-08-14T07:25:03;10.25;;;9.02;;
46322;SDS011;32044;52.386;13.278;2022-08-14T07:27:29;10.85;;;9.55;;
46322;SDS011;32044;52.386;13.278;2022-08-14T07:29:54;10.48;;;9.57;;
46322;SDS011;32044;52.386;13.278;2022-08-14T07:32:20;10.18;;;8.98;;
46322;SDS011;32044;52.386;13.278;2022-08-14T07:34:46;9.32;;;8.35;;
46322;SDS011;32044;52.386;13.278;2022-08-14T07:37:11;8.40;;;7.60;;
46322;SDS011;32044;52.386;13.278;2022-08-14T07:39:37;10.93;;;8.23;;
46322;SDS011;32044;52.386;13.278;2022-08-14T07:42:02;11.37;;;8.63;;
46322;SDS011;32044;52.386;13.278;2022-08-14T07:44:27;9.30;;;7.93;;
46322;SDS011;32044;52.386;13.278;2022-08-14T07:46:53;13.02;;;8.25;;
46322;SDS011;32044;52.386;13.278;2022-08-14T07:49:19;11.27;;;8.60;;
46322;SDS011;32044;52.386;13.278;2022-08-14T07:51:45;9.38;;;8.48;;
46322;SDS011;32044;52.386;13.278;2022-08-14T07:54:11;12.02;;;8.40;;
46322;SDS011;32044;52.386;13.278;2022-08-14T07:56:36;11.25;;;8.27;;
46322;SDS011;32044;52.386;13.278;2022-08-14T07:59:01;10.20;;;8.93;;
46322;SDS011;32044;52.386;13.278;2022-08-14T08:01:27;14.13;;;9.45;;
46322;SDS011;32044;52.386;13.278;2022-08-14T08:03:54;13.55;;;9.57;;
46322;SDS011;32044;52.386;13.278;2022-08-14T08:06:22;9.85;;;8.88;;
46322;SDS011;32044;52.386;13.278;2022-08-14T08:08:47;10.07;;;9.05;;
46322;SDS011;32044;52.386;13.278;2022-08-14T08:11:15;11.63;;;8.68;;
46322;SDS011;32044;52.386;13.278;2022-08-14T08:13:43;9.93;;;8.27;;
46322;SDS011;32044;52.386;13.278;2022-08-14T08:16:08;8.25;;;7.55;;
46322;SDS011;32044;52.386;13.278;2022-08-14T08:18:34;9.65;;;8.77;;
46322;SDS011;32044;52.386;13.278;2022-08-14T08:20:59;9.35;;;8.45;;
46322;SDS011;32044;52.386;13.278;2022-08-14T08:23:25;10.38;;;9.07;;
46322;SDS011;32044;52.386;13.278;2022-08-14T08:25:53;8.70;;;7.90;;
46322;SDS011;32044;52.386;13.278;2022-08-14T08:28:19;10.02;;;7.95;;
46322;SDS011;32044;52.386;13.278;2022-08-14T08:33:17;9.38;;;8.48;;
46322;SDS011;32044;52.386;13.278;2022-08-14T08:35:43;8.45;;;7.10;;
46322;SDS011;32044;52.386;13.278;2022-08-14T08:38:10;9.52;;;7.25;;
46322;SDS011;32044;52.386;13.278;2022-08-14T08:40:38;9.32;;;7.38;;
46322;SDS011;32044;52.386;13.278;2022-08-14T08:43:06;9.27;;;7.38;;
46322;SDS011;32044;52.386;13.278;2022-08-14T08:45:40;8.85;;;6.90;;
46322;SDS011;32044;52.386;13.278;2022-08-14T08:48:05;7.93;;;7.13;;
46322;SDS011;32044;52.386;13.278;2022-08-14T08:50:32;8.85;;;7.93;;
46322;SDS011;32044;52.386;13.278;2022-08-14T08:53:00;8.55;;;7.75;;
46322;SDS011;32044;52.386;13.278;2022-08-14T08:55:31;8.65;;;7.78;;
46322;SDS011;32044;52.386;13.278;2022-08-14T08:58:19;12.77;;;8.40;;
46322;SDS011;32044;52.386;13.278;2022-08-14T09:00:47;8.88;;;7.93;;
46322;SDS011;32044;52.386;13.278;2022-08-14T09:03:18;8.00;;;7.30;;
46322;SDS011;32044;52.386;13.278;2022-08-14T09:05:55;9.30;;;7.32;;
46322;SDS011;32044;52.386;13.278;2022-08-14T09:08:31;8.88;;;7.68;;
46322;SDS011;32044;52.386;13.278;2022-08-14T09:10:57;9.27;;;7.13;;
46322;SDS011;32044;52.386;13.278;2022-08-14T09:13:24;8.65;;;6.82;;
46322;SDS011;32044;52.386;13.278;2022-08-14T09:15:51;9.68;;;7.38;;
46322;SDS011;32044;52.386;13.278;2022-08-14T09:18:18;7.97;;;6.78;;
46322;SDS011;32044;52.386;13.278;2022-08-14T09:20:46;6.65;;;5.97;;
46322;SDS011;32044;52.386;13.278;2022-08-14T09:23:12;9.60;;;6.65;;
46322;SDS011;32044;52.386;13.278;2022-08-14T09:25:41;9.10;;;7.25;;
46322;SDS011;32044;52.386;13.278;2022-08-14T09:28:08;7.63;;;7.03;;
46322;SDS011;32044;52.386;13.278;2022-08-14T09:30:35;6.85;;;6.25;;
46322;SDS011;32044;52.386;13.278;2022-08-14T09:35:40;8.43;;;6.63;;
46322;SDS011;32044;52.386;13.278;2022-08-14T09:38:18;9.60;;;6.95;;
46322;SDS011;32044;52.386;13.278;2022-08-14T09:43:42;9.13;;;7.05;;
46322;SDS011;32044;52.386;13.278;2022-08-14T09:46:19;9.02;;;6.93;;
46322;SDS011;32044;52.386;13.278;2022-08-14T09:48:44;9.00;;;6.00;;
46322;SDS011;32044;52.386;13.278;2022-08-14T09:51:19;9.60;;;6.65;;
46322;SDS011;32044;52.386;13.278;2022-08-14T09:53:56;7.68;;;6.30;;
46322;SDS011;32044;52.386;13.278;2022-08-14T09:56:24;7.22;;;6.57;;
46322;SDS011;32044;52.386;13.278;2022-08-14T09:58:49;7.22;;;6.53;;
46322;SDS011;32044;52.386;13.278;2022-08-14T10:01:16;7.22;;;6.53;;
46322;SDS011;32044;52.386;13.278;2022-08-14T10:03:50;6.85;;;6.22;;
46322;SDS011;32044;52.386;13.278;2022-08-14T10:06:17;6.80;;;6.10;;
46322;SDS011;32044;52.386;13.278;2022-08-14T10:08:47;10.88;;;7.70;;
46322;SDS011;32044;52.386;13.278;2022-08-14T10:11:24;7.88;;;7.10;;
46322;SDS011;32044;52.386;13.278;2022-08-14T10:13:53;8.40;;;5.95;;
46322;SDS011;32044;52.386;13.278;2022-08-14T10:16:24;9.85;;;6.65;;
46322;SDS011;32044;52.386;13.278;2022-08-14T10:19:11;6.80;;;5.57;;
46322;SDS011;32044;52.386;13.278;2022-08-14T10:21:41;7.18;;;5.63;;
46322;SDS011;32044;52.386;13.278;2022-08-14T10:24:10;7.38;;;5.60;;
46322;SDS011;32044;52.386;13.278;2022-08-14T10:26:54;9.13;;;5.40;;
46322;SDS011;32044;52.386;13.278;2022-08-14T10:29:29;8.18;;;5.30;;
46322;SDS011;32044;52.386;13.278;2022-08-14T10:32:02;6.63;;;5.38;;
46322;SDS011;32044;52.386;13.278;2022-08-14T10:34:29;6.80;;;5.25;;
46322;SDS011;32044;52.386;13.278;2022-08-14T10:37:01;8.60;;;5.43;;
46322;SDS011;32044;52.386;13.278;2022-08-14T10:39:28;4.70;;;4.30;;
46322;SDS011;32044;52.386;13.278;2022-08-14T10:42:13;9.93;;;5.10;;
46322;SDS011;32044;52.386;13.278;2022-08-14T10:44:45;7.90;;;4.35;;
46322;SDS011;32044;52.386;13.278;2022-08-14T10:47:15;5.88;;;3.92;;
46322;SDS011;32044;52.386;13.278;2022-08-14T10:49:54;9.43;;;4.70;;
46322;SDS011;32044;52.386;13.278;2022-08-14T10:52:24;14.65;;;4.72;;
46322;SDS011;32044;52.386;13.278;2022-08-14T10:55:03;6.88;;;3.67;;
46322;SDS011;32044;52.386;13.278;2022-08-14T10:57:33;5.50;;;4.03;;
46322;SDS011;32044;52.386;13.278;2022-08-14T11:00:09;8.93;;;4.32;;
46322;SDS011;32044;52.386;13.278;2022-08-14T11:02:39;5.30;;;4.10;;
46322;SDS011;32044;52.386;13.278;2022-08-14T11:07:39;5.57;;;3.95;;
46322;SDS011;32044;52.386;13.278;2022-08-14T11:10:07;7.72;;;4.07;;
46322;SDS011;32044;52.386;13.278;2022-08-14T11:12:39;6.25;;;4.10;;
46322;SDS011;32044;52.386;13.278;2022-08-14T11:15:04;4.63;;;3.70;;
46322;SDS011;32044;52.386;13.278;2022-08-14T11:17:31;9.27;;;3.92;;
46322;SDS011;32044;52.386;13.278;2022-08-14T11:20:00;5.43;;;4.15;;
46322;SDS011;32044;52.386;13.278;2022-08-14T11:22:28;5.57;;;3.72;;
46322;SDS011;32044;52.386;13.278;2022-08-14T11:24:55;5.63;;;3.72;;
46322;SDS011;32044;52.386;13.278;2022-08-14T11:27:26;9.95;;;3.80;;
46322;SDS011;32044;52.386;13.278;2022-08-14T11:29:54;4.18;;;3.60;;
46322;SDS011;32044;52.386;13.278;2022-08-14T11:32:21;8.05;;;3.90;;
46322;SDS011;32044;52.386;13.278;2022-08-14T11:34:46;6.60;;;4.00;;
46322;SDS011;32044;52.386;13.278;2022-08-14T11:37:12;4.13;;;3.37;;
46322;SDS011;32044;52.386;13.278;2022-08-14T11:39:37;7.68;;;4.10;;
46322;SDS011;32044;52.386;13.278;2022-08-14T11:42:03;6.40;;;3.90;;
46322;SDS011;32044;52.386;13.278;2022-08-14T11:44:29;4.65;;;3.40;;
46322;SDS011;32044;52.386;13.278;2022-08-14T11:46:54;5.20;;;3.83;;
46322;SDS011;32044;52.386;13.278;2022-08-14T11:49:26;7.25;;;4.07;;
46322;SDS011;32044;52.386;13.278;2022-08-14T11:51:53;5.63;;;4.10;;
46322;SDS011;32044;52.386;13.278;2022-08-14T11:54:18;8.35;;;4.10;;
46322;SDS011;32044;52.386;13.278;2022-08-14T11:56:44;7.55;;;4.00;;
46322;SDS011;32044;52.386;13.278;2022-08-14T11:59:14;6.15;;;4.22;;
46322;SDS011;32044;52.386;13.278;2022-08-14T12:01:41;4.65;;;4.22;;
46322;SDS011;32044;52.386;13.278;2022-08-14T12:04:07;6.85;;;4.15;;
46322;SDS011;32044;52.386;13.278;2022-08-14T12:06:43;4.93;;;4.18;;
46322;SDS011;32044;52.386;13.278;2022-08-14T12:09:13;6.38;;;4.30;;
46322;SDS011;32044;52.386;13.278;2022-08-14T12:11:39;5.18;;;3.70;;
46322;SDS011;32044;52.386;13.278;2022-08-14T12:14:06;6.28;;;3.78;;
46322;SDS011;32044;52.386;13.278;2022-08-14T12:16:32;3.97;;;3.67;;
46322;SDS011;32044;52.386;13.278;2022-08-14T12:18:59;9.57;;;4.03;;
46322;SDS011;32044;52.386;13.278;2022-08-14T12:21:25;4.55;;;3.88;;
46322;SDS011;32044;52.386;13.278;2022-08-14T12:24:07;7.07;;;4.50;;
46322;SDS011;32044;52.386;13.278;2022-08-14T12:26:33;5.78;;;3.90;;
46322;SDS011;32044;52.386;13.278;2022-08-14T12:29:07;4.35;;;3.90;;
46322;SDS011;32044;52.386;13.278;2022-08-14T12:31:34;4.95;;;4.47;;
46322;SDS011;32044;52.386;13.278;2022-08-14T12:34:02;7.70;;;4.18;;
46322;SDS011;32044;52.386;13.278;2022-08-14T12:36:28;6.85;;;4.22;;
46322;SDS011;32044;52.386;13.278;2022-08-14T12:38:54;4.63;;;3.85;;
46322;SDS011;32044;52.386;13.278;2022-08-14T12:41:25;4.25;;;3.50;;
46322;SDS011;32044;52.386;13.278;2022-08-14T12:43:55;6.90;;;3.80;;
46322;SDS011;32044;52.386;13.278;2022-08-14T12:46:29;5.10;;;3.95;;
46322;SDS011;32044;52.386;13.278;2022-08-14T12:48:58;4.55;;;4.00;;
46322;SDS011;32044;52.386;13.278;2022-08-14T12:51:25;5.55;;;4.10;;
46322;SDS011;32044;52.386;13.278;2022-08-14T12:53:52;4.93;;;4.30;;
46322;SDS011;32044;52.386;13.278;2022-08-14T12:56:20;9.77;;;4.55;;
46322;SDS011;32044;52.386;13.278;2022-08-14T12:58:47;4.47;;;3.85;;
46322;SDS011;32044;52.386;13.278;2022-08-14T13:01:17;6.43;;;4.35;;
46322;SDS011;32044;52.386;13.278;2022-08-14T13:03:44;5.18;;;4.05;;
46322;SDS011;32044;52.386;13.278;2022-08-14T13:06:10;4.28;;;3.88;;
46322;SDS011;32044;52.386;13.278;2022-08-14T13:08:35;6.93;;;4.75;;
46322;SDS011;32044;52.386;13.278;2022-08-14T13:11:01;8.57;;;4.18;;
46322;SDS011;32044;52.386;13.278;2022-08-14T13:13:30;7.30;;;4.25;;
46322;SDS011;32044;52.386;13.278;2022-08-14T13:15:58;4.15;;;3.75;;
46322;SDS011;32044;52.386;13.278;2022-08-14T13:18:24;6.50;;;3.78;;
46322;SDS011;32044;52.386;13.278;2022-08-14T13:20:51;7.97;;;3.97;;
46322;SDS011;32044;52.386;13.278;2022-08-14T13:23:18;7.32;;;4.20;;
46322;SDS011;32044;52.386;13.278;2022-08-14T13:25:43;5.35;;;4.13;;
46322;SDS011;32044;52.386;13.278;2022-08-14T13:28:10;5.40;;;3.90;;
46322;SDS011;32044;52.386;13.278;2022-08-14T13:30:35;5.53;;;3.97;;
46322;SDS011;32044;52.386;13.278;2022-08-14T13:33:02;6.53;;;3.97;;
46322;SDS011;32044;52.386;13.278;2022-08-14T13:35:30;4.53;;;3.85;;
46322;SDS011;32044;52.386;13.278;2022-08-14T13:37:56;4.00;;;3.60;;
46322;SDS011;32044;52.386;13.278;2022-08-14T13:40:22;9.77;;;4.10;;
46322;SDS011;32044;52.386;13.278;2022-08-14T13:42:48;8.93;;;4.20;;
46322;SDS011;32044;52.386;13.278;2022-08-14T13:45:15;5.38;;;4.43;;
46322;SDS011;32044;52.386;13.278;2022-08-14T13:47:41;7.35;;;3.60;;
46322;SDS011;32044;52.386;13.278;2022-08-14T13:50:08;10.07;;;3.83;;
46322;SDS011;32044;52.386;13.278;2022-08-14T13:52:43;6.30;;;4.20;;
46322;SDS011;32044;52.386;13.278;2022-08-14T13:55:10;3.67;;;3.25;;
46322;SDS011;32044;52.386;13.278;2022-08-14T13:57:40;13.02;;;4.25;;
46322;SDS011;32044;52.386;13.278;2022-08-14T14:00:08;5.35;;;3.90;;
46322;SDS011;32044;52.386;13.278;2022-08-14T14:02:37;8.25;;;4.03;;
46322;SDS011;32044;52.386;13.278;2022-08-14T14:05:03;4.03;;;3.60;;
46322;SDS011;32044;52.386;13.278;2022-08-14T14:07:29;5.68;;;3.75;;
46322;SDS011;32044;52.386;13.278;2022-08-14T14:09:55;3.72;;;3.42;;
46322;SDS011;32044;52.386;13.278;2022-08-14T14:12:21;4.53;;;3.30;;
46322;SDS011;32044;52.386;13.278;2022-08-14T14:14:47;4.78;;;3.10;;
46322;SDS011;32044;52.386;13.278;2022-08-14T14:17:13;3.70;;;3.38;;
46322;SDS011;32044;52.386;13.278;2022-08-14T14:19:42;5.07;;;3.40;;
46322;SDS011;32044;52.386;13.278;2022-08-14T14:22:11;3.97;;;3.15;;
46322;SDS011;32044;52.386;13.278;2022-08-14T14:24:39;4.15;;;3.75;;
46322;SDS011;32044;52.386;13.278;2022-08-14T14:27:05;3.47;;;2.92;;
46322;SDS011;32044;52.386;13.278;2022-08-14T14:29:31;5.50;;;3.40;;
46322;SDS011;32044;52.386;13.278;2022-08-14T14:31:57;6.65;;;3.65;;
46322;SDS011;32044;52.386;13.278;2022-08-14T14:34:24;4.65;;;3.50;;
46322;SDS011;32044;52.386;13.278;2022-08-14T14:36:50;3.90;;;2.95;;
46322;SDS011;32044;52.386;13.278;2022-08-14T14:39:16;4.10;;;3.33;;